Terminal Aerodrome Forecast
Issued by NWS

Current Version | Previous Version | Text Only | Print | Product List | Glossary Off
Versions: 1 2 3 4 5 6 7 8 9 10 11 12 13

000
FTUS41 KRNK 221123
TAFLWB
TAF
KLWB 221123Z 2212/2312 VRB03KT P6SM BKN150
     FM221900 VRB03KT P6SM BKN060
     FM230400 09004KT P6SM SCT050
     FM230900 06010KT P6SM OVC050=

USA.gov is the U.S. government's official web portal to all federal, state and local government web resources and services.